createdAt,value
2023-01-09T00:00:03.907Z,73.15
2023-01-09T00:01:13.577Z,73.15
2023-01-09T00:02:16.557Z,72.90
2023-01-09T00:03:18.707Z,73.31
2023-01-09T00:04:21.556Z,73.13
2023-01-09T00:05:25.087Z,73.04
2023-01-09T00:06:28.030Z,73.25
2023-01-09T00:07:29.936Z,73.22
2023-01-09T00:08:32.750Z,73.22
2023-01-09T00:09:34.637Z,73.33
2023-01-09T00:10:37.602Z,73.28
2023-01-09T00:11:39.628Z,73.25
2023-01-09T00:12:42.443Z,73.19
2023-01-09T00:13:45.623Z,73.02
2023-01-09T00:14:48.663Z,73.28
2023-01-09T00:15:50.506Z,73.30
2023-01-09T00:16:55.546Z,72.91
2023-01-09T00:17:57.461Z,72.97
2023-01-09T00:19:01.005Z,72.88
2023-01-09T00:20:03.072Z,72.94
2023-01-09T00:21:09.830Z,73.17
2023-01-09T00:22:11.663Z,73.12
2023-01-09T00:23:14.525Z,73.02
2023-01-09T00:24:16.370Z,73.02
2023-01-09T00:25:19.412Z,73.08
2023-01-09T00:26:21.522Z,73.04
2023-01-09T00:27:24.400Z,72.91
2023-01-09T00:28:26.495Z,72.96
2023-01-09T00:29:29.386Z,72.67
2023-01-09T00:30:31.337Z,72.84
2023-01-09T00:31:34.194Z,73.09
2023-01-09T00:32:36.044Z,73.46
2023-01-09T00:33:42.796Z,73.25
2023-01-09T00:34:45.759Z,73.31
2023-01-09T00:35:47.672Z,73.45
2023-01-09T00:36:55.147Z,73.44
2023-01-09T00:37:57.055Z,73.25
2023-01-09T00:39:00.095Z,73.46
2023-01-09T00:40:01.983Z,73.17
2023-01-09T00:41:07.102Z,73.41
2023-01-09T00:42:13.115Z,73.55
2023-01-09T00:43:16.201Z,74.05
2023-01-09T00:44:22.996Z,73.77
2023-01-09T00:45:30.179Z,73.32
2023-01-09T00:46:36.583Z,73.49
2023-01-09T00:47:43.665Z,73.44
2023-01-09T00:48:48.499Z,73.55
2023-01-09T00:49:52.539Z,73.27
2023-01-09T00:50:58.699Z,73.10
2023-01-09T00:52:04.257Z,73.08
2023-01-09T00:53:11.380Z,73.38
2023-01-09T00:54:17.821Z,73.29
2023-01-09T00:55:20.885Z,73.66
2023-01-09T00:56:23.107Z,73.70
2023-01-09T00:57:26.052Z,73.46
2023-01-09T00:58:28.279Z,73.36
2023-01-09T00:59:31.242Z,73.18
2023-01-09T01:00:34.170Z,73.26
2023-01-09T01:01:37.122Z,73.12
2023-01-09T01:02:39.278Z,73.35
2023-01-09T01:03:42.354Z,73.28
2023-01-09T01:04:59.116Z,73.41
2023-01-09T01:06:19.475Z,73.30
2023-01-09T01:07:41.221Z,73.31
2023-01-09T01:08:44.216Z,73.36
2023-01-09T01:09:46.094Z,73.75
2023-01-09T01:10:49.834Z,73.42
2023-01-09T01:11:51.712Z,73.33
2023-01-09T01:12:55.107Z,73.58
2023-01-09T01:13:56.976Z,73.36
2023-01-09T01:14:59.952Z,73.40
2023-01-09T01:16:04.292Z,73.55
2023-01-09T01:17:08.226Z,73.01
2023-01-09T01:18:10.923Z,73.31
2023-01-09T01:19:13.776Z,73.40
2023-01-09T01:20:17.996Z,73.72
2023-01-09T01:21:20.872Z,72.95
2023-01-09T01:22:24.162Z,73.62
2023-01-09T01:23:27.030Z,73.79
2023-01-09T01:24:29.171Z,73.60
2023-01-09T01:25:32.038Z,73.50
2023-01-09T01:26:33.935Z,73.97
2023-01-09T01:27:36.778Z,73.42
2023-01-09T01:28:40.248Z,73.69
2023-01-09T01:29:42.164Z,73.80
2023-01-09T01:30:45.246Z,74.15
2023-01-09T01:31:47.095Z,74.11
2023-01-09T01:32:49.965Z,73.52
2023-01-09T01:33:51.789Z,73.54
2023-01-09T01:34:54.809Z,74.37
2023-01-09T01:36:04.267Z,74.61
2023-01-09T01:37:07.164Z,74.07
2023-01-09T01:38:10.344Z,74.53
2023-01-09T01:39:13.192Z,73.97
2023-01-09T01:40:15.048Z,74.38
2023-01-09T01:41:29.590Z,74.30
2023-01-09T01:42:33.036Z,74.53
2023-01-09T01:43:50.407Z,74.04
2023-01-09T01:45:19.462Z,73.97
2023-01-09T01:46:21.600Z,74.13
2023-01-09T01:47:30.393Z,74.04
2023-01-09T01:48:33.553Z,74.67
2023-01-09T01:49:35.512Z,74.14
2023-01-09T01:50:44.118Z,74.26
2023-01-09T01:51:52.231Z,74.36
2023-01-09T01:53:00.903Z,74.75
2023-01-09T01:54:11.045Z,73.95
2023-01-09T01:55:13.225Z,74.38
2023-01-09T01:56:19.348Z,74.41
2023-01-09T01:57:21.221Z,74.18
2023-01-09T01:58:24.134Z,74.18
2023-01-09T01:59:28.866Z,74.55
2023-01-09T02:00:35.114Z,74.02
2023-01-09T02:01:41.169Z,74.24
2023-01-09T02:02:45.940Z,74.46
2023-01-09T02:03:48.606Z,74.13
2023-01-09T02:04:54.702Z,74.20
2023-01-09T02:05:56.669Z,74.09
2023-01-09T02:07:03.050Z,73.93
2023-01-09T02:08:05.270Z,73.95
2023-01-09T02:09:10.120Z,73.69
2023-01-09T02:10:12.094Z,73.83
2023-01-09T02:11:15.593Z,74.15
2023-01-09T02:12:23.503Z,74.34
2023-01-09T02:13:28.601Z,74.33
2023-01-09T02:14:33.314Z,74.09
2023-01-09T02:15:50.287Z,73.96
2023-01-09T02:16:59.986Z,74.23
2023-01-09T02:18:27.265Z,74.89
2023-01-09T02:20:23.517Z,74.80
2023-01-09T02:21:39.292Z,74.88
2023-01-09T02:22:50.845Z,75.07
2023-01-09T02:24:10.134Z,74.86
2023-01-09T02:25:38.499Z,75.50
2023-01-09T02:26:55.833Z,76.27
2023-01-09T02:28:35.921Z,76.27
2023-01-09T02:29:51.675Z,76.19
2023-01-09T02:31:03.088Z,76.39
2023-01-09T02:32:11.637Z,75.99
2023-01-09T02:33:39.368Z,76.31
2023-01-09T02:34:51.410Z,75.84
2023-01-09T02:36:09.880Z,75.86
2023-01-09T02:37:17.741Z,75.97
2023-01-09T02:38:30.177Z,75.98
2023-01-09T02:39:38.416Z,75.07
2023-01-09T02:40:47.975Z,75.08
2023-01-09T02:41:58.554Z,75.27
2023-01-09T02:43:03.342Z,74.89
2023-01-09T02:44:15.261Z,74.82
2023-01-09T02:45:18.076Z,75.71
2023-01-09T02:46:22.951Z,75.77
2023-01-09T02:47:40.766Z,75.82
2023-01-09T02:48:46.212Z,75.98
2023-01-09T02:49:51.657Z,75.86
2023-01-09T02:51:06.946Z,75.86
2023-01-09T02:52:22.445Z,75.36
2023-01-09T02:53:45.244Z,75.58
2023-01-09T02:54:59.146Z,75.50
2023-01-09T02:56:14.201Z,75.71
2023-01-09T02:57:28.794Z,76.01
2023-01-09T02:58:43.761Z,76.12
2023-01-09T02:59:58.441Z,75.40
2023-01-09T03:01:13.742Z,75.83
2023-01-09T03:02:35.453Z,75.67
2023-01-09T03:03:49.051Z,75.56
2023-01-09T03:05:04.159Z,75.63
2023-01-09T03:06:11.744Z,75.44
2023-01-09T03:07:21.810Z,74.79
2023-01-09T03:08:32.596Z,75.16
2023-01-09T03:09:38.944Z,75.16
2023-01-09T03:10:47.585Z,74.46
2023-01-09T03:11:52.730Z,74.60
2023-01-09T03:12:58.988Z,74.40
2023-01-09T03:14:07.256Z,74.87
2023-01-09T03:15:15.666Z,74.59
2023-01-09T03:16:21.686Z,74.33
2023-01-09T03:17:30.892Z,74.36
2023-01-09T03:18:34.949Z,74.26
2023-01-09T03:19:38.895Z,74.54
2023-01-09T03:20:41.706Z,74.47
2023-01-09T03:21:45.873Z,74.54
2023-01-09T03:22:54.064Z,74.43
2023-01-09T03:23:59.074Z,74.15
2023-01-09T03:25:01.106Z,74.59
2023-01-09T03:26:03.995Z,74.16
2023-01-09T03:27:08.608Z,74.12
2023-01-09T03:28:24.833Z,74.16
2023-01-09T03:29:28.352Z,74.07
2023-01-09T03:30:34.512Z,74.06
2023-01-09T03:31:36.442Z,73.71
2023-01-09T03:32:40.622Z,74.19
2023-01-09T03:33:43.509Z,74.19
2023-01-09T03:34:46.354Z,74.09
2023-01-09T03:35:48.382Z,74.28
2023-01-09T03:36:51.250Z,74.14
2023-01-09T03:37:53.233Z,73.78
2023-01-09T03:39:20.918Z,73.87
2023-01-09T03:40:22.774Z,74.02
2023-01-09T03:41:25.647Z,74.37
2023-01-09T03:42:27.548Z,74.46
2023-01-09T03:43:30.642Z,73.92
2023-01-09T03:44:32.528Z,74.48
2023-01-09T03:45:35.403Z,74.07
2023-01-09T03:46:37.255Z,74.61
2023-01-09T03:47:41.494Z,75.10
2023-01-09T03:48:43.733Z,75.84
2023-01-09T03:49:46.539Z,75.37
2023-01-09T03:50:49.368Z,76.02
2023-01-09T03:51:52.223Z,75.87
2023-01-09T03:52:54.075Z,76.09
2023-01-09T03:53:56.895Z,75.59
2023-01-09T03:54:58.839Z,76.50
2023-01-09T03:56:01.798Z,76.11
2023-01-09T03:57:03.717Z,76.13
2023-01-09T03:58:06.606Z,75.92
2023-01-09T03:59:09.436Z,75.95
2023-01-09T04:00:12.353Z,75.12
2023-01-09T04:01:15.680Z,75.10
2023-01-09T04:02:17.925Z,75.56
2023-01-09T04:03:22.245Z,75.02
2023-01-09T04:04:24.226Z,74.66
2023-01-09T04:05:27.051Z,74.52
2023-01-09T04:06:28.884Z,75.16
2023-01-09T04:07:31.769Z,75.37
2023-01-09T04:08:34.017Z,76.21
2023-01-09T04:09:36.828Z,76.11
2023-01-09T04:10:38.636Z,76.64
2023-01-09T04:11:41.535Z,76.83
2023-01-09T04:12:43.354Z,77.39
2023-01-09T04:13:46.252Z,76.84
2023-01-09T04:14:48.081Z,76.96
2023-01-09T04:15:51.179Z,77.28
2023-01-09T04:16:53.085Z,77.16
2023-01-09T04:17:56.023Z,77.12
2023-01-09T04:18:59.249Z,77.25
2023-01-09T04:20:02.203Z,77.18
2023-01-09T04:21:04.066Z,77.06
2023-01-09T04:22:06.847Z,77.44
2023-01-09T04:23:08.823Z,77.27
2023-01-09T04:24:11.696Z,77.16
2023-01-09T04:25:13.656Z,77.96
2023-01-09T04:26:16.463Z,77.83
2023-01-09T04:27:18.474Z,77.54
2023-01-09T04:28:21.366Z,77.49
2023-01-09T04:29:23.193Z,77.63
2023-01-09T04:30:26.186Z,77.88
2023-01-09T04:31:28.076Z,78.05
2023-01-09T04:32:30.973Z,78.02
2023-01-09T04:33:32.868Z,77.91
2023-01-09T04:34:37.029Z,78.09
2023-01-09T04:35:38.890Z,78.10
2023-01-09T04:36:43.012Z,78.41
2023-01-09T04:37:44.921Z,78.21
2023-01-09T04:38:47.741Z,78.67
2023-01-09T04:39:50.135Z,78.47
2023-01-09T04:40:52.959Z,78.71
2023-01-09T04:41:54.771Z,78.77
2023-01-09T04:42:57.560Z,78.78
2023-01-09T04:43:59.407Z,79.19
2023-01-09T04:45:02.281Z,79.06
2023-01-09T04:46:04.587Z,78.79
2023-01-09T04:47:07.461Z,78.33
2023-01-09T04:48:09.511Z,78.97
2023-01-09T04:49:12.878Z,78.82
2023-01-09T04:50:16.399Z,78.58
2023-01-09T04:51:19.203Z,78.94
2023-01-09T04:52:21.321Z,79.14
2023-01-09T04:53:24.221Z,79.20
2023-01-09T04:54:26.068Z,78.57
2023-01-09T04:55:28.939Z,79.16
2023-01-09T04:56:30.942Z,78.90
2023-01-09T04:57:34.599Z,79.71
2023-01-09T04:58:36.477Z,79.21
2023-01-09T04:59:39.271Z,79.47
2023-01-09T05:00:41.136Z,79.31
2023-01-09T05:01:44.194Z,78.83
2023-01-09T05:02:46.185Z,79.16
2023-01-09T05:03:49.026Z,78.97
2023-01-09T05:04:50.851Z,79.03
2023-01-09T05:05:55.035Z,79.24
2023-01-09T05:06:56.919Z,78.88
2023-01-09T05:07:59.761Z,79.35
2023-01-09T05:09:01.999Z,79.20
2023-01-09T05:10:06.199Z,79.02
2023-01-09T05:11:08.027Z,79.25
2023-01-09T05:12:11.126Z,78.95
2023-01-09T05:13:13.987Z,79.33
2023-01-09T05:14:15.996Z,79.45
2023-01-09T05:15:18.905Z,79.30
2023-01-09T05:16:21.703Z,79.02
2023-01-09T05:17:24.658Z,79.13
2023-01-09T05:18:27.110Z,79.45
2023-01-09T05:19:30.426Z,79.34
2023-01-09T05:20:32.280Z,79.00
2023-01-09T05:21:36.469Z,79.14
2023-01-09T05:22:39.396Z,79.46
2023-01-09T05:23:41.394Z,79.00
2023-01-09T05:24:44.213Z,78.94
2023-01-09T05:25:46.119Z,79.62
2023-01-09T05:26:48.970Z,79.38
2023-01-09T05:27:50.786Z,79.37
2023-01-09T05:28:54.286Z,79.50
2023-01-09T05:29:57.172Z,79.50
2023-01-09T05:30:59.087Z,79.28
2023-01-09T05:32:01.920Z,79.05
2023-01-09T05:33:03.883Z,78.96
2023-01-09T05:34:06.725Z,79.04
2023-01-09T05:35:08.937Z,79.12
2023-01-09T05:36:11.762Z,79.08
2023-01-09T05:37:15.930Z,78.74
2023-01-09T05:38:17.860Z,78.43
2023-01-09T05:39:20.700Z,78.39
2023-01-09T05:40:29.086Z,78.74
2023-01-09T05:41:35.168Z,78.19
2023-01-09T05:42:37.012Z,78.38
2023-01-09T05:43:39.846Z,78.70
2023-01-09T05:44:41.688Z,78.14
2023-01-09T05:45:44.834Z,77.94
2023-01-09T05:46:46.779Z,78.47
2023-01-09T05:47:49.579Z,77.80
2023-01-09T05:48:52.381Z,77.68
2023-01-09T05:49:56.386Z,77.83
2023-01-09T05:50:58.349Z,78.00
2023-01-09T05:52:01.165Z,77.73
2023-01-09T05:53:04.420Z,77.44
2023-01-09T05:54:07.539Z,76.81
2023-01-09T05:55:11.969Z,77.26
2023-01-09T05:56:14.839Z,76.98
2023-01-09T05:57:16.878Z,76.93
2023-01-09T05:58:19.782Z,76.80
2023-01-09T05:59:21.681Z,76.34
2023-01-09T06:00:24.901Z,76.15
2023-01-09T06:01:26.868Z,76.12
2023-01-09T06:02:29.900Z,75.58
2023-01-09T06:03:31.828Z,75.45
2023-01-09T06:04:34.867Z,74.71
2023-01-09T06:05:37.237Z,74.34
2023-01-09T06:06:40.976Z,75.06
2023-01-09T06:07:42.868Z,74.51
2023-01-09T06:08:47.055Z,74.51
2023-01-09T06:09:48.945Z,73.79
2023-01-09T06:10:51.751Z,74.13
2023-01-09T06:11:55.116Z,74.13
2023-01-09T06:12:57.136Z,73.59
2023-01-09T06:14:00.014Z,73.43
2023-01-09T06:15:01.948Z,73.45
2023-01-09T06:16:05.202Z,74.26
2023-01-09T06:17:07.144Z,73.22
2023-01-09T06:18:10.095Z,72.91
2023-01-09T06:19:12.001Z,73.22
2023-01-09T06:20:14.885Z,73.13
2023-01-09T06:21:16.714Z,73.01
2023-01-09T06:22:19.634Z,73.23
2023-01-09T06:23:21.446Z,72.82
2023-01-09T06:24:25.945Z,72.43
2023-01-09T06:25:27.779Z,73.02
2023-01-09T06:26:30.631Z,73.03
2023-01-09T06:27:32.508Z,73.38
2023-01-09T06:28:35.351Z,73.25
2023-01-09T06:29:37.278Z,73.43
2023-01-09T06:30:40.236Z,73.24
2023-01-09T06:31:42.118Z,72.70
2023-01-09T06:32:44.948Z,73.31
2023-01-09T06:33:46.951Z,73.22
2023-01-09T06:34:49.807Z,72.83
2023-01-09T06:35:51.827Z,73.02
2023-01-09T06:36:54.636Z,73.22
2023-01-09T06:37:57.441Z,73.05
2023-01-09T06:39:00.389Z,73.01
2023-01-09T06:40:04.364Z,73.01
2023-01-09T06:41:07.242Z,73.18
2023-01-09T06:42:09.163Z,73.01
2023-01-09T06:43:11.993Z,73.29
2023-01-09T06:44:14.019Z,73.26
2023-01-09T06:45:17.525Z,73.20
2023-01-09T06:46:19.425Z,73.42
2023-01-09T06:47:22.340Z,73.30
2023-01-09T06:48:25.060Z,73.68
2023-01-09T06:49:27.881Z,73.39
2023-01-09T06:50:29.741Z,73.32
2023-01-09T06:51:32.551Z,73.26
2023-01-09T06:52:34.398Z,74.78
2023-01-09T06:53:37.318Z,73.65
2023-01-09T06:54:39.152Z,73.63
2023-01-09T06:55:43.390Z,73.73
2023-01-09T06:56:45.280Z,73.54
2023-01-09T06:57:49.200Z,73.09
2023-01-09T06:58:52.032Z,72.99
2023-01-09T06:59:54.036Z,73.46
2023-01-09T07:00:57.066Z,73.39
2023-01-09T07:01:59.194Z,73.16
2023-01-09T07:03:02.194Z,72.73
2023-01-09T07:04:05.398Z,74.15
2023-01-09T07:05:11.555Z,73.12
2023-01-09T07:06:13.583Z,73.73
2023-01-09T07:07:16.800Z,73.46
2023-01-09T07:08:19.638Z,73.10
2023-01-09T07:09:22.429Z,72.92
2023-01-09T07:10:25.375Z,73.18
2023-01-09T07:11:28.611Z,72.87
2023-01-09T07:12:31.382Z,72.25
2023-01-09T07:13:34.181Z,72.39
2023-01-09T07:14:36.465Z,72.75
2023-01-09T07:15:39.316Z,72.97
2023-01-09T07:16:41.212Z,72.63
2023-01-09T07:17:44.102Z,72.82
2023-01-09T07:18:46.952Z,72.60
2023-01-09T07:19:48.805Z,72.75
2023-01-09T07:20:52.136Z,72.47
2023-01-09T07:21:54.015Z,72.63
2023-01-09T07:22:56.896Z,72.76
2023-01-09T07:23:58.738Z,73.12
2023-01-09T07:25:01.865Z,73.02
2023-01-09T07:26:03.900Z,73.24
2023-01-09T07:27:08.133Z,73.89
2023-01-09T07:28:10.263Z,73.63
2023-01-09T07:29:13.151Z,74.30
2023-01-09T07:30:16.518Z,73.98
2023-01-09T07:31:18.424Z,74.82
2023-01-09T07:32:21.643Z,75.11
2023-01-09T07:33:24.446Z,75.12
2023-01-09T07:34:26.439Z,75.61
2023-01-09T07:35:29.283Z,75.57
2023-01-09T07:36:32.112Z,75.74
2023-01-09T07:37:34.357Z,75.80
2023-01-09T07:38:37.581Z,76.59
2023-01-09T07:39:39.583Z,76.55
2023-01-09T07:40:42.467Z,76.90
2023-01-09T07:41:45.683Z,76.74
2023-01-09T07:42:53.458Z,77.12
2023-01-09T07:43:57.059Z,77.19
2023-01-09T07:44:59.872Z,77.38
2023-01-09T07:46:01.723Z,77.32
2023-01-09T07:47:04.616Z,77.34
2023-01-09T07:48:07.892Z,77.32
2023-01-09T07:49:11.068Z,77.17
2023-01-09T07:50:14.076Z,77.33
2023-01-09T07:51:15.925Z,77.63
2023-01-09T07:52:18.977Z,77.75
2023-01-09T07:53:20.816Z,77.58
2023-01-09T07:54:23.669Z,77.77
2023-01-09T07:55:26.761Z,77.75
2023-01-09T07:56:29.583Z,77.24
2023-01-09T07:57:32.440Z,77.70
2023-01-09T07:58:35.677Z,77.32
2023-01-09T07:59:38.527Z,77.78
2023-01-09T08:00:40.603Z,77.19
2023-01-09T08:01:43.560Z,77.61
2023-01-09T08:02:45.509Z,77.50
2023-01-09T08:03:48.389Z,77.31
2023-01-09T08:04:51.251Z,77.30
2023-01-09T08:05:54.091Z,77.17
2023-01-09T08:06:56.893Z,77.26
2023-01-09T08:07:59.027Z,77.54
2023-01-09T08:09:02.005Z,77.46
2023-01-09T08:10:04.394Z,77.24
2023-01-09T08:11:07.249Z,77.22
2023-01-09T08:12:11.213Z,77.11
2023-01-09T08:13:14.018Z,76.89
2023-01-09T08:14:18.274Z,77.04
2023-01-09T08:15:21.202Z,77.62
2023-01-09T08:16:24.014Z,77.59
2023-01-09T08:17:26.615Z,77.31
2023-01-09T08:18:29.614Z,77.23
2023-01-09T08:19:31.481Z,76.97
2023-01-09T08:20:34.340Z,77.10
2023-01-09T08:21:37.213Z,77.02
2023-01-09T08:22:41.286Z,76.79
2023-01-09T08:24:57.648Z,77.06
2023-01-09T08:26:25.607Z,76.72
2023-01-09T08:27:27.487Z,77.06
2023-01-09T08:28:30.359Z,76.47
2023-01-09T08:29:33.745Z,75.92
2023-01-09T08:30:36.841Z,76.15
2023-01-09T08:31:39.775Z,75.97
2023-01-09T08:32:42.932Z,75.48
2023-01-09T08:33:46.004Z,75.27
2023-01-09T08:34:48.858Z,75.65
2023-01-09T08:35:50.865Z,75.48
2023-01-09T08:36:54.208Z,75.25
2023-01-09T08:37:56.082Z,75.44
2023-01-09T08:38:58.977Z,74.71
2023-01-09T08:40:01.908Z,74.30
2023-01-09T08:41:23.829Z,74.01
2023-01-09T08:42:44.167Z,73.30
2023-01-09T08:44:04.602Z,72.72
2023-01-09T08:45:28.891Z,72.71
2023-01-09T08:46:49.170Z,72.71
2023-01-09T08:47:52.421Z,72.46
2023-01-09T08:48:55.237Z,72.20
2023-01-09T08:49:57.825Z,72.11
2023-01-09T08:51:00.646Z,71.46
2023-01-09T08:52:03.916Z,71.70
2023-01-09T08:53:05.799Z,71.38
2023-01-09T08:54:08.631Z,70.92
2023-01-09T08:55:11.500Z,69.74
2023-01-09T08:56:14.303Z,70.69
2023-01-09T08:57:17.145Z,70.62
2023-01-09T08:58:19.993Z,70.58
2023-01-09T08:59:22.890Z,70.17
2023-01-09T09:00:27.549Z,70.87
2023-01-09T09:01:30.460Z,70.91
2023-01-09T09:02:33.426Z,70.32
2023-01-09T09:03:36.265Z,69.90
2023-01-09T09:04:39.112Z,69.18
2023-01-09T09:05:42.079Z,69.18
2023-01-09T09:06:43.904Z,69.56
2023-01-09T09:07:49.003Z,69.12
2023-01-09T09:08:50.838Z,68.79
2023-01-09T09:09:54.372Z,69.71
2023-01-09T09:10:57.393Z,69.50
2023-01-09T09:12:00.230Z,70.09
2023-01-09T09:13:03.061Z,69.70
2023-01-09T09:14:26.646Z,69.66
2023-01-09T09:15:29.960Z,69.53
2023-01-09T09:16:32.808Z,68.73
2023-01-09T09:17:34.717Z,68.40
2023-01-09T09:18:37.571Z,68.39
2023-01-09T09:19:39.654Z,68.73
2023-01-09T09:20:42.455Z,68.01
2023-01-09T09:21:44.579Z,67.65
2023-01-09T09:22:48.043Z,67.43
2023-01-09T09:23:50.906Z,68.28
2023-01-09T09:24:53.037Z,67.90
2023-01-09T09:25:55.827Z,68.23
2023-01-09T09:26:57.845Z,67.57
2023-01-09T09:28:01.405Z,66.67
2023-01-09T09:29:03.279Z,66.59
2023-01-09T09:30:07.381Z,66.94
2023-01-09T09:31:11.686Z,66.98
2023-01-09T09:32:13.891Z,66.74
2023-01-09T09:33:16.725Z,67.22
2023-01-09T09:34:19.724Z,67.49
2023-01-09T09:35:22.506Z,67.81
2023-01-09T09:36:25.357Z,67.25
2023-01-09T09:37:27.278Z,66.99
2023-01-09T09:38:30.085Z,67.72
2023-01-09T09:39:31.922Z,67.80
2023-01-09T09:40:50.793Z,67.78
2023-01-09T09:42:44.021Z,67.36
2023-01-09T09:44:43.721Z,67.47
2023-01-09T09:45:55.334Z,67.46
2023-01-09T09:47:10.898Z,66.90
2023-01-09T09:48:24.924Z,67.22
2023-01-09T09:49:36.583Z,67.55
2023-01-09T09:51:11.874Z,67.46
2023-01-09T09:52:25.931Z,67.88
2023-01-09T09:53:33.354Z,68.49
2023-01-09T09:54:41.483Z,67.71
2023-01-09T09:55:45.426Z,67.98
2023-01-09T09:56:52.476Z,67.41
2023-01-09T09:57:56.593Z,67.21
2023-01-09T09:59:03.772Z,66.64
2023-01-09T10:00:08.665Z,66.96
2023-01-09T10:01:19.476Z,67.54
2023-01-09T10:02:30.235Z,67.08
2023-01-09T10:03:38.413Z,67.41
2023-01-09T10:04:49.243Z,67.15
2023-01-09T10:05:55.204Z,67.32
2023-01-09T10:07:01.459Z,66.90
2023-01-09T10:08:15.680Z,67.41
2023-01-09T10:09:30.136Z,66.77
2023-01-09T10:10:39.071Z,67.24
2023-01-09T10:11:47.640Z,66.94
2023-01-09T10:12:55.634Z,67.19
2023-01-09T10:14:13.168Z,67.42
2023-01-09T10:15:31.759Z,66.76
2023-01-09T10:16:56.406Z,67.00
2023-01-09T10:18:13.389Z,66.25
2023-01-09T10:19:32.307Z,66.43
2023-01-09T10:20:51.002Z,66.73
2023-01-09T10:22:03.098Z,66.41
2023-01-09T10:23:18.796Z,66.52
2023-01-09T10:24:34.483Z,66.26
2023-01-09T10:25:44.958Z,66.84
2023-01-09T10:26:51.979Z,66.26
2023-01-09T10:28:09.208Z,65.68
2023-01-09T10:29:37.010Z,65.40
2023-01-09T10:30:44.930Z,66.26
2023-01-09T10:32:03.242Z,66.69
2023-01-09T10:33:23.702Z,66.20
2023-01-09T10:34:39.532Z,65.98
2023-01-09T10:36:05.737Z,66.81
2023-01-09T10:37:13.671Z,66.45
2023-01-09T10:38:21.351Z,66.21
2023-01-09T10:39:28.491Z,66.30
2023-01-09T10:40:35.685Z,65.98
2023-01-09T10:41:42.928Z,66.33
2023-01-09T10:42:49.387Z,66.01
2023-01-09T10:43:59.812Z,65.42
2023-01-09T10:45:07.741Z,65.78
2023-01-09T10:46:16.210Z,65.64
2023-01-09T10:47:24.474Z,65.63
2023-01-09T10:48:33.681Z,65.52
2023-01-09T10:49:39.568Z,65.62
2023-01-09T10:50:46.646Z,64.79
2023-01-09T10:51:51.435Z,65.25
2023-01-09T10:52:55.832Z,65.51
2023-01-09T10:53:57.754Z,65.33
2023-01-09T10:55:06.068Z,65.16
2023-01-09T10:56:14.395Z,64.43
2023-01-09T10:57:33.475Z,65.36
2023-01-09T10:58:36.383Z,65.24
2023-01-09T10:59:39.377Z,64.98
2023-01-09T11:00:43.011Z,65.08
2023-01-09T11:01:46.178Z,64.78
2023-01-09T11:02:48.419Z,64.37
2023-01-09T11:03:52.765Z,64.96
2023-01-09T11:04:54.578Z,65.11
2023-01-09T11:05:59.563Z,64.25
2023-01-09T11:07:06.800Z,63.75
2023-01-09T11:08:21.126Z,63.89
2023-01-09T11:10:47.233Z,63.23
2023-01-09T11:11:52.582Z,63.07
2023-01-09T11:13:15.221Z,64.33
2023-01-09T11:14:27.637Z,64.52
2023-01-09T11:15:29.605Z,64.23
2023-01-09T11:16:58.929Z,64.06
2023-01-09T11:18:24.478Z,62.97
2023-01-09T11:19:29.176Z,63.47
2023-01-09T11:20:31.267Z,63.46
2023-01-09T11:21:38.076Z,64.22
2023-01-09T11:22:45.590Z,63.80
2023-01-09T11:23:50.032Z,63.71
2023-01-09T11:25:00.370Z,63.27
2023-01-09T11:26:03.957Z,63.94
2023-01-09T11:27:23.554Z,63.50
2023-01-09T11:28:27.243Z,62.93
2023-01-09T11:29:30.138Z,63.93
2023-01-09T11:30:36.216Z,64.05
2023-01-09T11:31:38.811Z,63.69
2023-01-09T11:32:41.769Z,62.87
2023-01-09T11:33:50.223Z,62.72
2023-01-09T11:34:53.693Z,62.79
2023-01-09T11:36:00.388Z,63.29
2023-01-09T11:37:07.986Z,63.31
2023-01-09T11:38:16.357Z,63.39
2023-01-09T11:39:24.889Z,63.67
2023-01-09T11:40:27.300Z,63.69
2023-01-09T11:41:34.499Z,63.44
2023-01-09T11:42:51.934Z,63.37
2023-01-09T11:43:58.300Z,63.61
2023-01-09T11:45:30.014Z,62.55
2023-01-09T11:46:39.448Z,63.24
2023-01-09T11:47:41.465Z,63.52
2023-01-09T11:48:56.927Z,63.16
2023-01-09T11:50:18.769Z,61.60
2023-01-09T11:51:27.207Z,61.96
2023-01-09T11:52:29.030Z,62.83
2023-01-09T11:53:45.693Z,63.17
2023-01-09T11:54:52.829Z,62.29
2023-01-09T11:56:01.019Z,62.73
2023-01-09T11:57:03.949Z,63.09
2023-01-09T11:58:35.303Z,62.54
2023-01-09T11:59:38.135Z,62.15
2023-01-09T12:00:49.632Z,62.75
2023-01-09T12:02:31.124Z,61.87
2023-01-09T12:03:55.793Z,62.40
2023-01-09T12:05:02.505Z,62.28
2023-01-09T12:06:17.700Z,62.32
2023-01-09T12:07:35.862Z,61.71
2023-01-09T12:08:54.525Z,62.83
2023-01-09T12:10:06.382Z,62.01
2023-01-09T12:11:27.289Z,61.85
2023-01-09T12:12:36.924Z,62.38
2023-01-09T12:14:07.011Z,62.34
2023-01-09T12:15:24.730Z,61.75
2023-01-09T12:16:36.914Z,61.99
2023-01-09T12:18:01.828Z,61.99
2023-01-09T12:19:24.146Z,67.16
2023-01-09T12:20:58.815Z,62.16
2023-01-09T12:22:12.273Z,62.34
2023-01-09T12:23:33.904Z,62.08
2023-01-09T12:24:55.683Z,61.93
2023-01-09T12:26:13.038Z,62.43
2023-01-09T12:27:29.458Z,61.54
2023-01-09T12:28:48.366Z,61.34
2023-01-09T12:30:09.606Z,62.00
2023-01-09T12:31:25.090Z,62.52
2023-01-09T12:32:44.317Z,61.82
2023-01-09T12:33:59.267Z,62.00
2023-01-09T12:35:13.652Z,62.10
2023-01-09T12:45:48.823Z,61.05
2023-01-09T12:46:59.996Z,61.91
2023-01-09T12:48:14.699Z,62.02
2023-01-09T12:49:28.870Z,61.55
2023-01-09T12:51:04.404Z,62.20
2023-01-09T12:52:13.434Z,61.39
2023-01-09T12:53:23.371Z,62.09
2023-01-09T12:54:34.217Z,62.04
2023-01-09T12:55:41.295Z,61.86
2023-01-09T12:56:49.690Z,62.64
2023-01-09T12:57:54.898Z,62.10
2023-01-09T12:59:01.409Z,61.78
2023-01-09T13:00:07.622Z,62.57
2023-01-09T13:01:16.146Z,62.79
2023-01-09T13:02:30.744Z,63.33
2023-01-09T13:03:38.549Z,62.43
2023-01-09T13:07:42.688Z,62.74
2023-01-09T13:08:49.240Z,62.38
2023-01-09T13:09:57.935Z,62.41
2023-01-09T13:11:19.006Z,62.23
2023-01-09T13:12:25.664Z,62.78
2023-01-09T13:13:35.616Z,62.50
2023-01-09T13:14:50.724Z,62.77
2023-01-09T13:15:56.857Z,62.20
2023-01-09T13:17:02.307Z,61.80
2023-01-09T13:18:12.255Z,62.47
2023-01-09T13:19:19.364Z,62.17
2023-01-09T13:20:29.456Z,62.29
2023-01-09T13:21:33.105Z,62.91
2023-01-09T13:22:36.029Z,62.45
2023-01-09T13:23:47.958Z,62.25
2023-01-09T13:25:22.450Z,62.64
2023-01-09T13:26:28.446Z,62.73
2023-01-09T13:27:36.780Z,62.56
2023-01-09T13:28:47.020Z,62.87
2023-01-09T13:29:55.614Z,62.69
2023-01-09T13:31:18.107Z,62.62
2023-01-09T13:32:43.181Z,62.11
2023-01-09T13:33:50.521Z,61.82
2023-01-09T13:35:24.601Z,62.30
2023-01-09T13:36:30.724Z,61.67
2023-01-09T13:37:36.473Z,62.55
2023-01-09T13:38:39.730Z,62.28
2023-01-09T13:39:41.634Z,62.26
2023-01-09T13:40:44.699Z,61.88
2023-01-09T13:42:06.784Z,62.26
2023-01-09T13:43:09.965Z,62.10
2023-01-09T13:44:29.109Z,62.34
2023-01-09T13:45:33.885Z,61.96
2023-01-09T13:46:39.307Z,61.84
2023-01-09T13:47:43.576Z,62.32
2023-01-09T13:48:45.461Z,62.24
2023-01-09T13:50:06.411Z,61.68
2023-01-09T13:51:37.655Z,61.74
2023-01-09T13:52:41.926Z,61.70
2023-01-09T13:53:45.985Z,61.85
2023-01-09T13:55:25.370Z,61.73
2023-01-09T13:56:29.376Z,61.42
2023-01-09T13:57:34.742Z,61.55
2023-01-09T13:58:59.937Z,61.41
2023-01-09T14:00:44.895Z,61.83
2023-01-09T14:01:48.107Z,62.09
2023-01-09T14:03:05.670Z,62.24
2023-01-09T14:04:43.414Z,62.30
2023-01-09T14:06:17.304Z,62.24
2023-01-09T14:07:28.093Z,62.23
2023-01-09T14:09:10.463Z,62.61
2023-01-09T14:10:24.321Z,61.76
2023-01-09T14:11:29.115Z,62.00
2023-01-09T14:12:41.070Z,61.98
2023-01-09T14:13:45.264Z,62.52
2023-01-09T14:14:49.982Z,62.12
2023-01-09T14:15:53.391Z,62.16
2023-01-09T14:16:56.390Z,61.95
2023-01-09T14:18:02.639Z,62.43
2023-01-09T14:19:10.376Z,62.31
2023-01-09T14:20:39.801Z,62.24
2023-01-09T14:21:52.884Z,62.16
2023-01-09T14:23:18.101Z,62.13
2023-01-09T14:24:24.815Z,61.97
2023-01-09T14:25:31.588Z,61.24
2023-01-09T14:26:45.229Z,61.27
2023-01-09T14:28:11.629Z,80.71
2023-01-09T14:29:53.903Z,75.84
2023-01-09T14:31:11.290Z,80.32
2023-01-09T14:32:43.782Z,74.75
2023-01-09T14:33:49.619Z,64.62
2023-01-09T14:34:56.475Z,63.10
2023-01-09T14:36:29.335Z,60.79
2023-01-09T14:37:34.433Z,61.15
2023-01-09T14:38:42.433Z,60.62